createdAt,value
2018-03-31T00:01:12.244Z,9.60
2018-03-31T00:03:39.762Z,9.60
2018-03-31T00:06:07.998Z,9.50
2018-03-31T00:08:35.485Z,9.50
2018-03-31T00:11:03.769Z,9.50
2018-03-31T00:13:32.623Z,9.50
2018-03-31T00:16:00.099Z,9.40
2018-03-31T00:18:28.612Z,9.40
2018-03-31T00:20:56.090Z,9.40
2018-03-31T00:26:24.165Z,9.40
2018-03-31T00:28:51.642Z,9.30
2018-03-31T00:31:29.228Z,9.20
2018-03-31T00:33:56.714Z,9.20
2018-03-31T00:36:24.262Z,9.20
2018-03-31T00:38:51.788Z,9.20
2018-03-31T00:41:19.261Z,9.10
2018-03-31T00:43:46.804Z,9.00
2018-03-31T00:46:14.318Z,8.80
2018-03-31T00:48:42.563Z,8.90
2018-03-31T00:54:10.743Z,8.90
2018-03-31T00:56:38.303Z,8.90
2018-03-31T00:59:27.870Z,8.90
2018-03-31T01:01:55.343Z,8.90
2018-03-31T01:10:28.318Z,8.70
2018-03-31T01:15:57.825Z,8.50
2018-03-31T01:18:26.069Z,8.40
2018-03-31T01:23:53.938Z,8.40
2018-03-31T01:26:28.167Z,8.50
2018-03-31T01:28:55.681Z,8.40
2018-03-31T01:31:23.165Z,8.20
2018-03-31T01:33:50.638Z,8.30
2018-03-31T01:36:18.162Z,8.30
2018-03-31T01:38:45.634Z,8.30
2018-03-31T01:41:28.293Z,8.30
2018-03-31T01:43:56.531Z,8.30
2018-03-31T01:46:24.092Z,8.30
2018-03-31T01:48:51.604Z,8.40
2018-03-31T01:51:19.827Z,8.00
2018-03-31T01:53:47.300Z,8.00
2018-03-31T01:56:14.893Z,8.20
2018-03-31T01:58:42.980Z,8.10
2018-03-31T02:04:12.165Z,7.80
2018-03-31T02:06:40.406Z,7.70
2018-03-31T02:12:08.228Z,7.60
2018-03-31T02:14:36.492Z,7.50
2018-03-31T02:17:03.953Z,7.50
2018-03-31T02:19:32.237Z,7.80
2018-03-31T02:22:00.485Z,7.80
2018-03-31T02:24:27.962Z,7.80
2018-03-31T02:26:56.230Z,7.90
2018-03-31T02:29:23.731Z,7.80
2018-03-31T02:31:51.203Z,7.80
2018-03-31T02:34:18.705Z,7.80
2018-03-31T02:36:46.963Z,7.70
2018-03-31T02:39:14.476Z,7.70
2018-03-31T02:41:42.005Z,7.70
2018-03-31T02:44:10.318Z,7.70
2018-03-31T02:46:37.789Z,7.70
2018-03-31T02:49:05.301Z,7.60
2018-03-31T02:51:33.554Z,7.40
2018-03-31T02:54:01.800Z,7.60
2018-03-31T02:56:29.302Z,7.60
2018-03-31T02:59:28.804Z,7.20
2018-03-31T03:02:01.201Z,7.40
2018-03-31T03:04:28.677Z,7.40
2018-03-31T03:06:56.184Z,7.30
2018-03-31T03:09:23.713Z,7.30
2018-03-31T03:11:51.187Z,7.30
2018-03-31T03:14:18.654Z,7.30
2018-03-31T03:16:47.066Z,7.30
2018-03-31T03:19:14.544Z,7.30
2018-03-31T03:24:42.833Z,7.40
2018-03-31T03:27:10.297Z,7.40
2018-03-31T03:29:37.766Z,7.30
2018-03-31T03:32:05.272Z,7.30
2018-03-31T03:34:33.520Z,7.40
2018-03-31T03:37:00.990Z,7.30
2018-03-31T03:39:28.511Z,7.40
2018-03-31T03:41:56.017Z,7.40
2018-03-31T03:44:24.321Z,7.30
2018-03-31T03:49:53.203Z,7.40
2018-03-31T03:52:21.454Z,7.40
2018-03-31T03:54:48.916Z,7.40
2018-03-31T03:57:16.447Z,7.30
2018-03-31T03:59:43.920Z,7.30
2018-03-31T04:02:11.395Z,7.30
2018-03-31T04:04:39.694Z,7.20
2018-03-31T04:07:07.160Z,7.20
2018-03-31T04:09:35.152Z,7.30
2018-03-31T04:12:02.669Z,7.30
2018-03-31T04:14:30.131Z,7.30
2018-03-31T04:16:57.605Z,7.30
2018-03-31T04:19:25.253Z,7.20
2018-03-31T04:21:52.716Z,7.30
2018-03-31T04:24:20.189Z,7.30
2018-03-31T04:26:47.812Z,7.30
2018-03-31T04:32:16.042Z,7.30
2018-03-31T04:34:43.513Z,7.30
2018-03-31T04:37:10.985Z,7.30
2018-03-31T04:39:38.512Z,7.20
2018-03-31T04:42:28.166Z,7.20
2018-03-31T04:44:55.673Z,7.30
2018-03-31T04:47:23.204Z,7.40
2018-03-31T04:49:50.665Z,7.30
2018-03-31T04:52:18.166Z,7.20
2018-03-31T04:54:46.409Z,7.30
2018-03-31T04:57:13.962Z,7.30
2018-03-31T04:59:41.493Z,7.40
2018-03-31T05:02:08.966Z,7.30
2018-03-31T05:04:36.443Z,7.40
2018-03-31T05:07:03.964Z,7.40
2018-03-31T05:12:33.144Z,7.30
2018-03-31T05:15:00.623Z,7.30
2018-03-31T05:17:28.131Z,7.30
2018-03-31T05:19:55.640Z,7.30
2018-03-31T05:22:23.163Z,7.20
2018-03-31T05:24:50.680Z,7.30
2018-03-31T05:27:18.150Z,7.30
2018-03-31T05:29:45.714Z,7.20
2018-03-31T05:32:13.267Z,7.30
2018-03-31T05:34:40.748Z,7.30
2018-03-31T05:37:08.208Z,7.30
2018-03-31T05:39:35.732Z,7.20
2018-03-31T05:42:03.297Z,7.30
2018-03-31T05:44:30.793Z,7.30
2018-03-31T05:46:59.113Z,7.20
2018-03-31T05:49:26.586Z,7.20
2018-03-31T05:51:54.079Z,7.20
2018-03-31T06:00:29.424Z,7.30
2018-03-31T06:05:57.870Z,7.40
2018-03-31T06:14:28.769Z,7.50
2018-03-31T06:16:56.280Z,7.40
2018-03-31T06:19:30.357Z,7.50
2018-03-31T06:21:57.861Z,7.50
2018-03-31T06:24:29.467Z,7.50
2018-03-31T06:26:56.943Z,7.50
2018-03-31T06:29:30.693Z,7.50
2018-03-31T06:34:59.185Z,7.60
2018-03-31T06:40:28.505Z,7.70
2018-03-31T06:42:56.799Z,7.70
2018-03-31T06:45:29.025Z,7.60
2018-03-31T06:48:28.117Z,7.50
2018-03-31T07:00:42.366Z,7.60
2018-03-31T07:03:30.453Z,7.70
2018-03-31T07:06:29.043Z,7.70
2018-03-31T07:12:27.949Z,7.90
2018-03-31T07:14:55.439Z,7.90
2018-03-31T07:23:25.276Z,8.30
2018-03-31T07:35:14.689Z,8.50
2018-03-31T07:40:42.554Z,8.40
2018-03-31T07:46:30.813Z,8.30
2018-03-31T07:54:59.958Z,8.60
2018-03-31T08:06:29.800Z,8.60
2018-03-31T08:08:57.268Z,8.60
2018-03-31T08:11:31.037Z,8.80
2018-03-31T08:13:59.283Z,8.80
2018-03-31T08:16:26.761Z,8.80
2018-03-31T08:18:55.784Z,8.80
2018-03-31T08:21:23.262Z,8.80
2018-03-31T08:23:50.775Z,8.80
2018-03-31T08:26:19.067Z,8.90
2018-03-31T08:28:47.300Z,9.20
2018-03-31T08:31:14.781Z,9.20
2018-03-31T08:33:43.057Z,9.20
2018-03-31T08:36:11.357Z,9.30
2018-03-31T08:38:38.873Z,9.30
2018-03-31T08:44:07.448Z,9.50
2018-03-31T08:46:34.926Z,9.40
2018-03-31T08:49:02.408Z,9.40
2018-03-31T08:51:30.670Z,9.40
2018-03-31T08:53:58.915Z,9.50
2018-03-31T08:56:26.437Z,9.50
2018-03-31T08:58:53.995Z,9.40
2018-03-31T09:01:21.473Z,9.40
2018-03-31T09:03:49.056Z,9.30
2018-03-31T09:06:16.584Z,9.30
2018-03-31T09:11:44.466Z,9.40
2018-03-31T09:14:12.539Z,9.40
2018-03-31T09:19:41.622Z,9.40
2018-03-31T09:22:09.900Z,9.50
2018-03-31T09:24:38.141Z,9.40
2018-03-31T09:27:05.858Z,9.40
2018-03-31T09:29:33.337Z,9.50
2018-03-31T09:35:01.642Z,9.60
2018-03-31T09:37:29.131Z,9.50
2018-03-31T09:39:56.602Z,9.60
2018-03-31T09:42:24.869Z,9.70
2018-03-31T09:44:53.115Z,9.70
2018-03-31T09:47:20.630Z,9.70
2018-03-31T09:49:48.105Z,9.70
2018-03-31T09:52:15.620Z,9.70
2018-03-31T09:54:43.868Z,9.70
2018-03-31T09:57:11.383Z,9.70
2018-03-31T09:59:38.870Z,9.80
2018-03-31T10:02:06.396Z,9.80
2018-03-31T10:04:33.878Z,9.90
2018-03-31T10:07:01.395Z,9.90
2018-03-31T10:09:28.944Z,9.90
2018-03-31T10:11:57.196Z,10.00
2018-03-31T10:14:30.777Z,10.00
2018-03-31T10:16:58.258Z,10.00
2018-03-31T10:22:27.942Z,10.00
2018-03-31T10:24:55.408Z,10.10
2018-03-31T10:27:29.905Z,10.10
2018-03-31T10:29:57.392Z,10.10
2018-03-31T10:32:24.874Z,10.10
2018-03-31T10:34:52.416Z,10.10
2018-03-31T10:37:19.903Z,10.20
2018-03-31T10:39:48.169Z,10.20
2018-03-31T10:42:17.190Z,10.10
2018-03-31T10:44:44.672Z,10.20
2018-03-31T10:50:28.061Z,10.30
2018-03-31T10:52:55.541Z,10.30
2018-03-31T10:55:30.350Z,10.30
2018-03-31T11:01:00.510Z,10.40
2018-03-31T11:03:28.845Z,10.40
2018-03-31T11:06:27.586Z,10.40
2018-03-31T11:13:31.061Z,10.70
2018-03-31T11:16:27.411Z,10.70
2018-03-31T11:18:54.931Z,10.80
2018-03-31T11:21:29.084Z,10.90
2018-03-31T11:26:57.603Z,10.90
2018-03-31T11:41:29.316Z,11.10
2018-03-31T11:44:27.538Z,11.10
2018-03-31T11:52:57.576Z,11.30
2018-03-31T11:55:29.179Z,11.30
2018-03-31T11:58:27.434Z,11.40
2018-03-31T12:00:54.958Z,11.30
2018-03-31T12:03:28.533Z,11.50
2018-03-31T12:11:57.014Z,11.50
2018-03-31T12:14:24.599Z,11.50
2018-03-31T12:16:52.080Z,11.40
2018-03-31T12:19:19.704Z,11.40
2018-03-31T12:21:47.188Z,11.40
2018-03-31T12:24:16.180Z,11.50
2018-03-31T12:26:43.702Z,11.40
2018-03-31T12:29:11.181Z,11.40
2018-03-31T12:31:38.733Z,11.50
2018-03-31T12:37:06.521Z,11.40
2018-03-31T12:42:34.574Z,11.40
2018-03-31T12:45:02.057Z,10.90
2018-03-31T12:47:29.537Z,11.40
2018-03-31T12:49:57.105Z,11.50
2018-03-31T12:52:25.358Z,11.60
2018-03-31T12:54:52.841Z,11.60
2018-03-31T12:57:21.857Z,11.60
2018-03-31T12:59:49.333Z,11.60
2018-03-31T13:02:16.822Z,11.70
2018-03-31T13:04:44.376Z,11.70
2018-03-31T13:07:29.165Z,11.70
2018-03-31T13:09:56.694Z,11.70
2018-03-31T13:12:24.170Z,11.70
2018-03-31T13:14:51.667Z,11.70
2018-03-31T13:20:20.427Z,11.80
2018-03-31T13:22:48.621Z,11.80
2018-03-31T13:25:16.875Z,11.90
2018-03-31T13:27:44.387Z,11.90
2018-03-31T13:30:11.862Z,12.00
2018-03-31T13:32:39.327Z,12.00
2018-03-31T13:41:09.079Z,12.10
2018-03-31T13:43:36.548Z,12.10
2018-03-31T13:46:04.017Z,12.10
2018-03-31T13:48:31.521Z,12.20
2018-03-31T13:50:59.013Z,12.20
2018-03-31T13:53:26.490Z,12.10
2018-03-31T13:55:54.010Z,12.10
2018-03-31T13:58:21.492Z,12.10
2018-03-31T14:00:49.478Z,12.10
2018-03-31T14:03:16.997Z,12.10
2018-03-31T14:05:44.722Z,12.20
2018-03-31T14:08:13.569Z,12.20
2018-03-31T14:10:41.080Z,12.10
2018-03-31T14:16:09.549Z,12.20
2018-03-31T14:18:37.790Z,12.20
2018-03-31T14:21:05.275Z,12.20
2018-03-31T14:23:32.786Z,12.20
2018-03-31T14:26:00.253Z,12.20
2018-03-31T14:31:29.115Z,12.20
2018-03-31T14:33:56.861Z,12.20
2018-03-31T14:36:25.150Z,12.20
2018-03-31T14:38:56.287Z,12.20
2018-03-31T14:41:24.734Z,12.20
2018-03-31T14:43:53.316Z,12.30
2018-03-31T14:46:29.933Z,12.30
2018-03-31T14:48:59.525Z,12.20
2018-03-31T14:51:27.146Z,12.10
2018-03-31T14:53:54.667Z,12.30
2018-03-31T14:56:31.288Z,12.30
2018-03-31T14:59:00.452Z,12.30
2018-03-31T15:01:31.976Z,12.30
2018-03-31T15:04:28.144Z,12.30
2018-03-31T15:06:55.615Z,12.30
2018-03-31T15:12:23.932Z,12.30
2018-03-31T15:14:51.400Z,12.30
2018-03-31T15:17:18.877Z,12.30
2018-03-31T15:19:47.154Z,12.30
2018-03-31T15:22:15.434Z,12.30
2018-03-31T15:24:43.716Z,12.30
2018-03-31T15:27:11.957Z,12.20
2018-03-31T15:29:39.454Z,12.20
2018-03-31T15:32:28.528Z,12.20
2018-03-31T15:34:56.131Z,12.30
2018-03-31T15:37:29.816Z,12.30
2018-03-31T15:39:57.298Z,12.20
2018-03-31T15:45:26.726Z,12.20
2018-03-31T15:47:55.788Z,12.20
2018-03-31T15:50:24.119Z,12.20
2018-03-31T15:52:52.473Z,12.20
2018-03-31T15:55:19.930Z,12.20
2018-03-31T15:57:48.171Z,12.20
2018-03-31T16:00:15.679Z,12.20
2018-03-31T16:02:44.034Z,12.20
2018-03-31T16:05:29.143Z,12.20
2018-03-31T16:07:56.708Z,12.20
2018-03-31T16:13:24.188Z,12.20
2018-03-31T16:18:52.512Z,12.00
2018-03-31T16:21:19.980Z,12.00
2018-03-31T16:23:48.087Z,12.10
2018-03-31T16:26:15.804Z,12.00
2018-03-31T16:28:43.285Z,12.10
2018-03-31T16:31:10.829Z,12.10
2018-03-31T16:33:38.553Z,12.10
2018-03-31T16:36:06.027Z,12.10
2018-03-31T16:38:33.507Z,12.00
2018-03-31T16:41:01.016Z,12.00
2018-03-31T16:43:28.505Z,12.00
2018-03-31T16:45:55.968Z,12.00
2018-03-31T16:48:23.611Z,11.90
2018-03-31T16:50:51.082Z,11.60
2018-03-31T16:53:18.589Z,11.60
2018-03-31T16:55:46.852Z,11.30
2018-03-31T16:58:15.198Z,11.00
2018-03-31T17:00:42.678Z,11.00
2018-03-31T17:03:11.697Z,10.90
2018-03-31T17:05:39.941Z,10.90
2018-03-31T17:08:07.422Z,10.80
2018-03-31T17:10:35.831Z,11.20
2018-03-31T17:13:03.306Z,11.20
2018-03-31T17:15:30.787Z,11.30
2018-03-31T17:17:58.324Z,10.40
2018-03-31T17:23:26.436Z,10.00
2018-03-31T17:25:53.932Z,10.00
2018-03-31T17:28:21.409Z,10.10
2018-03-31T17:30:48.999Z,10.10
2018-03-31T17:33:16.582Z,10.00
2018-03-31T17:38:45.926Z,9.90
2018-03-31T17:47:14.978Z,10.00
2018-03-31T17:49:42.444Z,9.80
2018-03-31T17:52:09.936Z,9.90
2018-03-31T17:54:37.472Z,9.90
2018-03-31T17:57:04.951Z,9.80
2018-03-31T17:59:32.435Z,9.90
2018-03-31T18:02:00.734Z,9.70
2018-03-31T18:04:28.209Z,9.70
2018-03-31T18:06:55.686Z,9.60
2018-03-31T18:09:23.208Z,9.60
2018-03-31T18:20:53.569Z,9.20
2018-03-31T18:23:21.818Z,9.20
2018-03-31T18:34:51.844Z,8.80
2018-03-31T18:43:20.954Z,8.50
2018-03-31T18:57:20.956Z,8.40
2018-03-31T19:02:48.758Z,8.10
2018-03-31T19:11:17.961Z,8.00
2018-03-31T19:16:53.419Z,8.20
2018-03-31T19:40:28.089Z,7.80
2018-03-31T19:45:56.090Z,7.70
2018-03-31T19:48:29.641Z,7.70
2018-03-31T19:50:57.173Z,7.50
2018-03-31T19:53:24.667Z,7.50
2018-03-31T19:55:52.150Z,7.50
2018-03-31T19:58:19.670Z,7.50
2018-03-31T20:03:30.428Z,7.50
2018-03-31T20:05:57.983Z,7.40
2018-03-31T20:11:25.438Z,7.50
2018-03-31T20:13:52.927Z,7.50
2018-03-31T20:16:20.406Z,7.50
2018-03-31T20:18:47.914Z,7.40
2018-03-31T20:21:15.397Z,7.40
2018-03-31T20:23:43.050Z,7.50
2018-03-31T20:26:10.575Z,7.50
2018-03-31T20:28:38.068Z,7.40
2018-03-31T20:31:30.103Z,7.40
2018-03-31T20:33:58.074Z,7.30
2018-03-31T20:40:53.854Z,7.30
2018-03-31T20:43:21.334Z,7.30
2018-03-31T20:45:48.801Z,7.20
2018-03-31T20:48:16.311Z,7.20
2018-03-31T20:50:43.791Z,7.20
2018-03-31T20:53:12.070Z,7.10
2018-03-31T20:55:40.402Z,7.00
2018-03-31T20:58:07.922Z,7.00
2018-03-31T21:00:35.396Z,6.90
2018-03-31T21:03:02.853Z,6.90
2018-03-31T21:05:30.410Z,6.80
2018-03-31T21:07:57.875Z,6.80
2018-03-31T21:10:25.341Z,6.80
2018-03-31T21:15:53.457Z,6.80
2018-03-31T21:21:21.901Z,6.80
2018-03-31T21:23:49.376Z,6.80
2018-03-31T21:26:16.835Z,6.80
2018-03-31T21:31:45.281Z,6.70
2018-03-31T21:34:13.528Z,6.70
2018-03-31T21:36:40.997Z,6.70
2018-03-31T21:39:08.519Z,6.70
2018-03-31T21:41:35.993Z,6.70
2018-03-31T21:44:03.469Z,6.70
2018-03-31T21:46:31.000Z,6.70
2018-03-31T21:48:58.460Z,6.70
2018-03-31T21:51:25.939Z,6.70
2018-03-31T21:53:53.449Z,6.70
2018-03-31T21:59:22.132Z,6.70
2018-03-31T22:04:50.342Z,6.70
2018-03-31T22:07:17.904Z,6.60
2018-03-31T22:12:46.062Z,6.50
2018-03-31T22:15:34.014Z,6.50
2018-03-31T22:18:02.294Z,6.40
2018-03-31T22:20:29.767Z,6.40
2018-03-31T22:22:57.373Z,6.50
2018-03-31T22:25:28.681Z,6.60
2018-03-31T22:27:56.154Z,6.40
2018-03-31T22:30:23.629Z,6.30
2018-03-31T22:32:51.149Z,6.20
2018-03-31T22:35:18.607Z,6.30
2018-03-31T22:37:46.077Z,6.10
2018-03-31T22:40:13.573Z,6.10
2018-03-31T22:45:42.699Z,6.10
2018-03-31T22:48:10.932Z,6.20
2018-03-31T22:56:39.512Z,5.90
2018-03-31T22:59:07.001Z,5.80
2018-03-31T23:01:34.497Z,5.70
2018-03-31T23:04:02.840Z,5.60
2018-03-31T23:06:30.328Z,5.60
2018-03-31T23:11:59.413Z,5.40
2018-03-31T23:14:30.073Z,5.50
2018-03-31T23:16:57.554Z,5.50
2018-03-31T23:19:25.061Z,5.60
2018-03-31T23:21:52.533Z,5.80
2018-03-31T23:27:21.709Z,5.20
2018-03-31T23:29:49.195Z,5.20
2018-03-31T23:32:16.690Z,5.40
2018-03-31T23:34:44.965Z,5.10
2018-03-31T23:37:28.893Z,5.10
2018-03-31T23:39:57.171Z,5.20
2018-03-31T23:42:24.637Z,5.20
2018-03-31T23:44:52.861Z,4.90
2018-03-31T23:47:20.425Z,4.90
2018-03-31T23:49:47.901Z,5.00
2018-03-31T23:52:15.378Z,5.10
2018-03-31T23:54:43.667Z,4.90
2018-03-31T23:57:11.919Z,4.90
2018-03-31T23:59:39.428Z,4.80
